sensor_id;sensor_type;location;lat;lon;timestamp;P1;durP1;ratioP1;P2;durP2;ratioP2
49456;SDS011;35352;51.480;-0.862;2022-09-21T00:01:14;5;;;5;;
49456;SDS011;35352;51.480;-0.862;2022-09-21T00:03:44;8;;;7;;
49456;SDS011;35352;51.480;-0.862;2022-09-21T00:06:14;6;;;6;;
49456;SDS011;35352;51.480;-0.862;2022-09-21T00:08:42;8;;;6;;
49456;SDS011;35352;51.480;-0.862;2022-09-21T00:11:12;2;;;2;;
49456;SDS011;35352;51.480;-0.862;2022-09-21T00:13:41;10;;;8;;
49456;SDS011;35352;51.480;-0.862;2022-09-21T00:16:11;7;;;7;;
49456;SDS011;35352;51.480;-0.862;2022-09-21T00:18:40;8;;;8;;
49456;SDS011;35352;51.480;-0.862;2022-09-21T00:21:13;5;;;5;;
49456;SDS011;35352;51.480;-0.862;2022-09-21T00:23:42;7;;;5;;
49456;SDS011;35352;51.480;-0.862;2022-09-21T00:26:11;7;;;7;;
49456;SDS011;35352;51.480;-0.862;2022-09-21T00:28:40;7;;;7;;
49456;SDS011;35352;51.480;-0.862;2022-09-21T00:31:13;3;;;3;;
49456;SDS011;35352;51.480;-0.862;2022-09-21T00:33:42;9;;;9;;
49456;SDS011;35352;51.480;-0.862;2022-09-21T00:36:11;9;;;9;;
49456;SDS011;35352;51.480;-0.862;2022-09-21T00:38:40;6;;;6;;
49456;SDS011;35352;51.480;-0.862;2022-09-21T00:41:14;4;;;4;;
49456;SDS011;35352;51.480;-0.862;2022-09-21T00:43:45;6;;;6;;
49456;SDS011;35352;51.480;-0.862;2022-09-21T00:46:15;7;;;6;;
49456;SDS011;35352;51.480;-0.862;2022-09-21T00:48:48;8;;;8;;
49456;SDS011;35352;51.480;-0.862;2022-09-21T00:51:14;8;;;4;;
49456;SDS011;35352;51.480;-0.862;2022-09-21T00:53:42;6;;;6;;
49456;SDS011;35352;51.480;-0.862;2022-09-21T00:56:11;10;;;9;;
49456;SDS011;35352;51.480;-0.862;2022-09-21T00:58:42;6;;;6;;
49456;SDS011;35352;51.480;-0.862;2022-09-21T01:01:14;4;;;4;;
49456;SDS011;35352;51.480;-0.862;2022-09-21T01:03:42;6;;;6;;
49456;SDS011;35352;51.480;-0.862;2022-09-21T01:06:11;6;;;6;;
49456;SDS011;35352;51.480;-0.862;2022-09-21T01:08:41;6;;;6;;
49456;SDS011;35352;51.480;-0.862;2022-09-21T01:11:17;1;;;1;;
49456;SDS011;35352;51.480;-0.862;2022-09-21T01:14:07;5;;;5;;
49456;SDS011;35352;51.480;-0.862;2022-09-21T01:16:52;6;;;5;;
49456;SDS011;35352;51.480;-0.862;2022-09-21T01:19:39;8;;;6;;
49456;SDS011;35352;51.480;-0.862;2022-09-21T01:22:01;8;;;6;;
49456;SDS011;35352;51.480;-0.862;2022-09-21T01:22:12;8;;;6;;
49456;SDS011;35352;51.480;-0.862;2022-09-21T01:24:49;7;;;5;;
49456;SDS011;35352;51.480;-0.862;2022-09-21T01:27:32;9;;;8;;
49456;SDS011;35352;51.480;-0.862;2022-09-21T01:31:14;6;;;5;;
49456;SDS011;35352;51.480;-0.862;2022-09-21T01:33:48;8;;;8;;
49456;SDS011;35352;51.480;-0.862;2022-09-21T01:36:23;7;;;6;;
49456;SDS011;35352;51.480;-0.862;2022-09-21T01:38:54;10;;;9;;
49456;SDS011;35352;51.480;-0.862;2022-09-21T01:41:27;6;;;6;;
49456;SDS011;35352;51.480;-0.862;2022-09-21T01:43:58;7;;;7;;
49456;SDS011;35352;51.480;-0.862;2022-09-21T01:46:31;8;;;8;;
49456;SDS011;35352;51.480;-0.862;2022-09-21T01:49:02;7;;;7;;
49456;SDS011;35352;51.480;-0.862;2022-09-21T01:51:38;9;;;7;;
49456;SDS011;35352;51.480;-0.862;2022-09-21T01:54:12;7;;;6;;
49456;SDS011;35352;51.480;-0.862;2022-09-21T01:56:45;8;;;8;;
49456;SDS011;35352;51.480;-0.862;2022-09-21T01:59:15;10;;;9;;
49456;SDS011;35352;51.480;-0.862;2022-09-21T02:01:50;6;;;6;;
49456;SDS011;35352;51.480;-0.862;2022-09-21T02:04:22;12;;;8;;
49456;SDS011;35352;51.480;-0.862;2022-09-21T02:06:50;6;;;6;;
49456;SDS011;35352;51.480;-0.862;2022-09-21T02:09:18;7;;;7;;
49456;SDS011;35352;51.480;-0.862;2022-09-21T02:11:46;8;;;8;;
49456;SDS011;35352;51.480;-0.862;2022-09-21T02:14:14;11;;;10;;
49456;SDS011;35352;51.480;-0.862;2022-09-21T02:16:47;9;;;8;;
49456;SDS011;35352;51.480;-0.862;2022-09-21T02:19:29;7;;;7;;
49456;SDS011;35352;51.480;-0.862;2022-09-21T02:22:06;12;;;12;;
49456;SDS011;35352;51.480;-0.862;2022-09-21T02:24:39;10;;;10;;
49456;SDS011;35352;51.480;-0.862;2022-09-21T02:27:13;12;;;10;;
49456;SDS011;35352;51.480;-0.862;2022-09-21T02:29:50;11;;;11;;
49456;SDS011;35352;51.480;-0.862;2022-09-21T02:32:26;12;;;11;;
49456;SDS011;35352;51.480;-0.862;2022-09-21T02:35:00;12;;;12;;
49456;SDS011;35352;51.480;-0.862;2022-09-21T02:37:34;13;;;12;;
49456;SDS011;35352;51.480;-0.862;2022-09-21T02:41:13;14;;;13;;
49456;SDS011;35352;51.480;-0.862;2022-09-21T02:43:46;9;;;9;;
49456;SDS011;35352;51.480;-0.862;2022-09-21T02:46:18;16;;;15;;
49456;SDS011;35352;51.480;-0.862;2022-09-21T02:48:52;14;;;14;;
49456;SDS011;35352;51.480;-0.862;2022-09-21T02:51:25;18;;;15;;
49456;SDS011;35352;51.480;-0.862;2022-09-21T02:53:56;12;;;11;;
49456;SDS011;35352;51.480;-0.862;2022-09-21T02:56:26;10;;;10;;
49456;SDS011;35352;51.480;-0.862;2022-09-21T02:58:55;7;;;7;;
49456;SDS011;35352;51.480;-0.862;2022-09-21T03:01:31;9;;;7;;
49456;SDS011;35352;51.480;-0.862;2022-09-21T03:04:00;9;;;8;;
49456;SDS011;35352;51.480;-0.862;2022-09-21T03:06:28;8;;;7;;
49456;SDS011;35352;51.480;-0.862;2022-09-21T03:08:57;11;;;10;;
49456;SDS011;35352;51.480;-0.862;2022-09-21T03:11:24;7;;;7;;
49456;SDS011;35352;51.480;-0.862;2022-09-21T03:13:52;10;;;7;;
49456;SDS011;35352;51.480;-0.862;2022-09-21T03:16:19;8;;;8;;
49456;SDS011;35352;51.480;-0.862;2022-09-21T03:18:46;11;;;11;;
49456;SDS011;35352;51.480;-0.862;2022-09-21T03:21:13;6;;;6;;
49456;SDS011;35352;51.480;-0.862;2022-09-21T03:23:40;9;;;9;;
49456;SDS011;35352;51.480;-0.862;2022-09-21T03:26:07;9;;;9;;
49456;SDS011;35352;51.480;-0.862;2022-09-21T03:28:34;12;;;9;;
49456;SDS011;35352;51.480;-0.862;2022-09-21T03:31:13;6;;;6;;
49456;SDS011;35352;51.480;-0.862;2022-09-21T03:33:40;12;;;12;;
49456;SDS011;35352;51.480;-0.862;2022-09-21T03:36:08;10;;;10;;
49456;SDS011;35352;51.480;-0.862;2022-09-21T03:38:36;9;;;7;;
49456;SDS011;35352;51.480;-0.862;2022-09-21T03:41:13;7;;;7;;
49456;SDS011;35352;51.480;-0.862;2022-09-21T03:43:40;7;;;6;;
49456;SDS011;35352;51.480;-0.862;2022-09-21T03:46:07;7;;;7;;
49456;SDS011;35352;51.480;-0.862;2022-09-21T03:48:35;8;;;7;;
49456;SDS011;35352;51.480;-0.862;2022-09-21T03:51:12;4;;;3;;
49456;SDS011;35352;51.480;-0.862;2022-09-21T03:53:39;9;;;9;;
49456;SDS011;35352;51.480;-0.862;2022-09-21T03:56:07;7;;;6;;
49456;SDS011;35352;51.480;-0.862;2022-09-21T03:58:34;8;;;8;;
49456;SDS011;35352;51.480;-0.862;2022-09-21T04:01:13;5;;;5;;
49456;SDS011;35352;51.480;-0.862;2022-09-21T04:03:40;6;;;6;;
49456;SDS011;35352;51.480;-0.862;2022-09-21T04:06:08;6;;;6;;
49456;SDS011;35352;51.480;-0.862;2022-09-21T04:08:35;7;;;7;;
49456;SDS011;35352;51.480;-0.862;2022-09-21T04:11:13;3;;;3;;
49456;SDS011;35352;51.480;-0.862;2022-09-21T04:13:42;9;;;9;;
49456;SDS011;35352;51.480;-0.862;2022-09-21T04:16:10;6;;;6;;
49456;SDS011;35352;51.480;-0.862;2022-09-21T04:18:38;9;;;9;;
49456;SDS011;35352;51.480;-0.862;2022-09-21T04:21:12;6;;;5;;
49456;SDS011;35352;51.480;-0.862;2022-09-21T04:23:39;8;;;8;;
49456;SDS011;35352;51.480;-0.862;2022-09-21T04:26:17;8;;;7;;
49456;SDS011;35352;51.480;-0.862;2022-09-21T04:28:46;8;;;8;;
49456;SDS011;35352;51.480;-0.862;2022-09-21T04:31:13;5;;;5;;
49456;SDS011;35352;51.480;-0.862;2022-09-21T04:33:40;8;;;8;;
49456;SDS011;35352;51.480;-0.862;2022-09-21T04:36:07;5;;;5;;
49456;SDS011;35352;51.480;-0.862;2022-09-21T04:38:35;8;;;7;;
49456;SDS011;35352;51.480;-0.862;2022-09-21T04:41:13;4;;;4;;
49456;SDS011;35352;51.480;-0.862;2022-09-21T04:43:41;9;;;8;;
49456;SDS011;35352;51.480;-0.862;2022-09-21T04:46:11;6;;;5;;
49456;SDS011;35352;51.480;-0.862;2022-09-21T04:48:39;8;;;8;;
49456;SDS011;35352;51.480;-0.862;2022-09-21T04:51:12;4;;;4;;
49456;SDS011;35352;51.480;-0.862;2022-09-21T04:53:41;8;;;7;;
49456;SDS011;35352;51.480;-0.862;2022-09-21T04:56:09;5;;;5;;
49456;SDS011;35352;51.480;-0.862;2022-09-21T04:58:40;10;;;8;;
49456;SDS011;35352;51.480;-0.862;2022-09-21T05:01:13;3;;;3;;
49456;SDS011;35352;51.480;-0.862;2022-09-21T05:03:40;6;;;6;;
49456;SDS011;35352;51.480;-0.862;2022-09-21T05:06:08;6;;;6;;
49456;SDS011;35352;51.480;-0.862;2022-09-21T05:08:36;8;;;7;;
49456;SDS011;35352;51.480;-0.862;2022-09-21T05:11:13;4;;;4;;
49456;SDS011;35352;51.480;-0.862;2022-09-21T05:13:46;9;;;7;;
49456;SDS011;35352;51.480;-0.862;2022-09-21T05:16:13;5;;;5;;
49456;SDS011;35352;51.480;-0.862;2022-09-21T05:18:41;5;;;5;;
49456;SDS011;35352;51.480;-0.862;2022-09-21T05:21:12;6;;;6;;
49456;SDS011;35352;51.480;-0.862;2022-09-21T05:23:40;8;;;8;;
49456;SDS011;35352;51.480;-0.862;2022-09-21T05:26:07;11;;;11;;
49456;SDS011;35352;51.480;-0.862;2022-09-21T05:28:35;10;;;9;;
49456;SDS011;35352;51.480;-0.862;2022-09-21T05:31:18;9;;;9;;
49456;SDS011;35352;51.480;-0.862;2022-09-21T05:34:03;15;;;14;;
49456;SDS011;35352;51.480;-0.862;2022-09-21T05:36:40;10;;;10;;
49456;SDS011;35352;51.480;-0.862;2022-09-21T05:39:20;10;;;9;;
49456;SDS011;35352;51.480;-0.862;2022-09-21T05:41:48;9;;;9;;
49456;SDS011;35352;51.480;-0.862;2022-09-21T05:44:16;6;;;6;;
49456;SDS011;35352;51.480;-0.862;2022-09-21T05:46:45;9;;;9;;
49456;SDS011;35352;51.480;-0.862;2022-09-21T05:49:21;7;;;7;;
49456;SDS011;35352;51.480;-0.862;2022-09-21T05:51:59;8;;;8;;
49456;SDS011;35352;51.480;-0.862;2022-09-21T05:54:40;8;;;7;;
49456;SDS011;35352;51.480;-0.862;2022-09-21T05:57:27;7;;;7;;
49456;SDS011;35352;51.480;-0.862;2022-09-21T06:01:17;6;;;6;;
49456;SDS011;35352;51.480;-0.862;2022-09-21T06:03:57;8;;;8;;
49456;SDS011;35352;51.480;-0.862;2022-09-21T06:06:27;9;;;7;;
49456;SDS011;35352;51.480;-0.862;2022-09-21T06:08:55;9;;;8;;
49456;SDS011;35352;51.480;-0.862;2022-09-21T06:11:22;9;;;8;;
49456;SDS011;35352;51.480;-0.862;2022-09-21T06:13:50;6;;;6;;
49456;SDS011;35352;51.480;-0.862;2022-09-21T06:16:17;7;;;7;;
49456;SDS011;35352;51.480;-0.862;2022-09-21T06:18:45;8;;;7;;
49456;SDS011;35352;51.480;-0.862;2022-09-21T06:21:12;4;;;4;;
49456;SDS011;35352;51.480;-0.862;2022-09-21T06:23:39;8;;;8;;
49456;SDS011;35352;51.480;-0.862;2022-09-21T06:26:07;8;;;8;;
49456;SDS011;35352;51.480;-0.862;2022-09-21T06:28:35;7;;;7;;
49456;SDS011;35352;51.480;-0.862;2022-09-21T06:31:12;5;;;5;;
49456;SDS011;35352;51.480;-0.862;2022-09-21T06:33:39;11;;;11;;
49456;SDS011;35352;51.480;-0.862;2022-09-21T06:36:07;11;;;8;;
49456;SDS011;35352;51.480;-0.862;2022-09-21T06:38:35;11;;;10;;
49456;SDS011;35352;51.480;-0.862;2022-09-21T06:41:12;6;;;6;;
49456;SDS011;35352;51.480;-0.862;2022-09-21T06:43:40;11;;;11;;
49456;SDS011;35352;51.480;-0.862;2022-09-21T06:46:07;9;;;9;;
49456;SDS011;35352;51.480;-0.862;2022-09-21T06:48:35;11;;;10;;
49456;SDS011;35352;51.480;-0.862;2022-09-21T06:51:13;8;;;8;;
49456;SDS011;35352;51.480;-0.862;2022-09-21T06:53:40;9;;;9;;
49456;SDS011;35352;51.480;-0.862;2022-09-21T06:56:08;10;;;9;;
49456;SDS011;35352;51.480;-0.862;2022-09-21T06:58:36;11;;;10;;
49456;SDS011;35352;51.480;-0.862;2022-09-21T07:01:13;6;;;6;;
49456;SDS011;35352;51.480;-0.862;2022-09-21T07:03:41;9;;;7;;
49456;SDS011;35352;51.480;-0.862;2022-09-21T07:06:09;8;;;8;;
49456;SDS011;35352;51.480;-0.862;2022-09-21T07:08:37;7;;;7;;
49456;SDS011;35352;51.480;-0.862;2022-09-21T07:11:15;4;;;4;;
49456;SDS011;35352;51.480;-0.862;2022-09-21T07:13:43;10;;;9;;
49456;SDS011;35352;51.480;-0.862;2022-09-21T07:16:10;8;;;8;;
49456;SDS011;35352;51.480;-0.862;2022-09-21T07:18:43;10;;;10;;
49456;SDS011;35352;51.480;-0.862;2022-09-21T07:21:12;5;;;5;;
49456;SDS011;35352;51.480;-0.862;2022-09-21T07:23:40;12;;;11;;
49456;SDS011;35352;51.480;-0.862;2022-09-21T07:26:08;11;;;10;;
49456;SDS011;35352;51.480;-0.862;2022-09-21T07:28:37;12;;;11;;
49456;SDS011;35352;51.480;-0.862;2022-09-21T07:31:13;7;;;6;;
49456;SDS011;35352;51.480;-0.862;2022-09-21T07:33:42;11;;;10;;
49456;SDS011;35352;51.480;-0.862;2022-09-21T07:36:10;14;;;11;;
49456;SDS011;35352;51.480;-0.862;2022-09-21T07:38:39;12;;;11;;
49456;SDS011;35352;51.480;-0.862;2022-09-21T07:41:13;7;;;7;;
49456;SDS011;35352;51.480;-0.862;2022-09-21T07:43:40;10;;;10;;
49456;SDS011;35352;51.480;-0.862;2022-09-21T07:46:09;11;;;11;;
49456;SDS011;35352;51.480;-0.862;2022-09-21T07:48:37;9;;;9;;
49456;SDS011;35352;51.480;-0.862;2022-09-21T07:51:13;9;;;9;;
49456;SDS011;35352;51.480;-0.862;2022-09-21T07:53:43;12;;;11;;
49456;SDS011;35352;51.480;-0.862;2022-09-21T07:56:11;12;;;11;;
49456;SDS011;35352;51.480;-0.862;2022-09-21T07:58:40;13;;;12;;
49456;SDS011;35352;51.480;-0.862;2022-09-21T08:01:12;9;;;9;;
49456;SDS011;35352;51.480;-0.862;2022-09-21T08:03:39;10;;;9;;
49456;SDS011;35352;51.480;-0.862;2022-09-21T08:06:07;13;;;13;;
49456;SDS011;35352;51.480;-0.862;2022-09-21T08:08:34;13;;;12;;
49456;SDS011;35352;51.480;-0.862;2022-09-21T08:11:13;7;;;7;;
49456;SDS011;35352;51.480;-0.862;2022-09-21T08:13:41;11;;;10;;
49456;SDS011;35352;51.480;-0.862;2022-09-21T08:16:09;10;;;9;;
49456;SDS011;35352;51.480;-0.862;2022-09-21T08:18:37;16;;;14;;
49456;SDS011;35352;51.480;-0.862;2022-09-21T08:21:13;7;;;7;;
49456;SDS011;35352;51.480;-0.862;2022-09-21T08:23:39;16;;;13;;
49456;SDS011;35352;51.480;-0.862;2022-09-21T08:26:07;18;;;13;;
49456;SDS011;35352;51.480;-0.862;2022-09-21T08:28:38;18;;;15;;
49456;SDS011;35352;51.480;-0.862;2022-09-21T08:31:13;11;;;11;;
49456;SDS011;35352;51.480;-0.862;2022-09-21T08:33:41;15;;;15;;
49456;SDS011;35352;51.480;-0.862;2022-09-21T08:36:09;17;;;16;;
49456;SDS011;35352;51.480;-0.862;2022-09-21T08:38:36;17;;;17;;
49456;SDS011;35352;51.480;-0.862;2022-09-21T08:41:14;13;;;13;;
49456;SDS011;35352;51.480;-0.862;2022-09-21T08:43:43;13;;;13;;
49456;SDS011;35352;51.480;-0.862;2022-09-21T08:46:16;12;;;12;;
49456;SDS011;35352;51.480;-0.862;2022-09-21T08:48:47;9;;;9;;
49456;SDS011;35352;51.480;-0.862;2022-09-21T08:51:20;12;;;12;;
49456;SDS011;35352;51.480;-0.862;2022-09-21T08:53:54;10;;;10;;
49456;SDS011;35352;51.480;-0.862;2022-09-21T08:56:26;12;;;11;;
49456;SDS011;35352;51.480;-0.862;2022-09-21T08:58:54;10;;;10;;
49456;SDS011;35352;51.480;-0.862;2022-09-21T09:01:27;9;;;8;;
49456;SDS011;35352;51.480;-0.862;2022-09-21T09:04:13;9;;;9;;
49456;SDS011;35352;51.480;-0.862;2022-09-21T09:06:55;13;;;11;;
49456;SDS011;35352;51.480;-0.862;2022-09-21T09:09:41;11;;;11;;
49456;SDS011;35352;51.480;-0.862;2022-09-21T09:12:31;12;;;10;;
49456;SDS011;35352;51.480;-0.862;2022-09-21T09:15:15;13;;;11;;
49456;SDS011;35352;51.480;-0.862;2022-09-21T09:17:56;8;;;8;;
49456;SDS011;35352;51.480;-0.862;2022-09-21T09:21:14;7;;;7;;
49456;SDS011;35352;51.480;-0.862;2022-09-21T09:23:50;9;;;9;;
49456;SDS011;35352;51.480;-0.862;2022-09-21T09:26:25;8;;;7;;
49456;SDS011;35352;51.480;-0.862;2022-09-21T09:29:00;10;;;9;;
49456;SDS011;35352;51.480;-0.862;2022-09-21T09:31:33;13;;;10;;
49456;SDS011;35352;51.480;-0.862;2022-09-21T09:34:08;9;;;7;;
49456;SDS011;35352;51.480;-0.862;2022-09-21T09:36:41;9;;;8;;
49456;SDS011;35352;51.480;-0.862;2022-09-21T09:39:12;9;;;9;;
49456;SDS011;35352;51.480;-0.862;2022-09-21T09:41:45;11;;;8;;
49456;SDS011;35352;51.480;-0.862;2022-09-21T09:44:31;10;;;8;;
49456;SDS011;35352;51.480;-0.862;2022-09-21T09:47:15;7;;;6;;
49456;SDS011;35352;51.480;-0.862;2022-09-21T09:49:59;8;;;8;;
49456;SDS011;35352;51.480;-0.862;2022-09-21T09:52:31;7;;;7;;
49456;SDS011;35352;51.480;-0.862;2022-09-21T09:54:59;10;;;8;;
49456;SDS011;35352;51.480;-0.862;2022-09-21T09:57:28;8;;;7;;
49456;SDS011;35352;51.480;-0.862;2022-09-21T09:59:58;8;;;7;;
49456;SDS011;35352;51.480;-0.862;2022-09-21T10:02:29;5;;;5;;
49456;SDS011;35352;51.480;-0.862;2022-09-21T10:04:58;6;;;4;;
49456;SDS011;35352;51.480;-0.862;2022-09-21T10:07:37;6;;;6;;
49456;SDS011;35352;51.480;-0.862;2022-09-21T10:11:13;5;;;5;;
49456;SDS011;35352;51.480;-0.862;2022-09-21T10:13:42;9;;;8;;
49456;SDS011;35352;51.480;-0.862;2022-09-21T10:16:12;7;;;7;;
49456;SDS011;35352;51.480;-0.862;2022-09-21T10:18:45;5;;;5;;
49456;SDS011;35352;51.480;-0.862;2022-09-21T10:21:17;5;;;5;;
49456;SDS011;35352;51.480;-0.862;2022-09-21T10:23:50;9;;;9;;
49456;SDS011;35352;51.480;-0.862;2022-09-21T10:26:23;6;;;5;;
49456;SDS011;35352;51.480;-0.862;2022-09-21T10:28:57;6;;;6;;
49456;SDS011;35352;51.480;-0.862;2022-09-21T10:31:26;5;;;5;;
49456;SDS011;35352;51.480;-0.862;2022-09-21T10:34:05;5;;;4;;
49456;SDS011;35352;51.480;-0.862;2022-09-21T10:36:38;5;;;5;;
49456;SDS011;35352;51.480;-0.862;2022-09-21T10:39:23;5;;;5;;
49456;SDS011;35352;51.480;-0.862;2022-09-21T10:41:55;6;;;5;;
49456;SDS011;35352;51.480;-0.862;2022-09-21T10:44:25;4;;;4;;
49456;SDS011;35352;51.480;-0.862;2022-09-21T10:46:59;4;;;4;;
49456;SDS011;35352;51.480;-0.862;2022-09-21T10:49:41;5;;;5;;
49456;SDS011;35352;51.480;-0.862;2022-09-21T10:52:11;5;;;5;;
49456;SDS011;35352;51.480;-0.862;2022-09-21T10:54:40;3;;;2;;
49456;SDS011;35352;51.480;-0.862;2022-09-21T10:57:13;4;;;4;;
49456;SDS011;35352;51.480;-0.862;2022-09-21T10:59:51;3;;;3;;
49456;SDS011;35352;51.480;-0.862;2022-09-21T11:02:27;5;;;5;;
49456;SDS011;35352;51.480;-0.862;2022-09-21T11:05:05;5;;;5;;
49456;SDS011;35352;51.480;-0.862;2022-09-21T11:07:40;3;;;2;;
49456;SDS011;35352;51.480;-0.862;2022-09-21T11:11:19;2;;;2;;
49456;SDS011;35352;51.480;-0.862;2022-09-21T11:13:57;5;;;4;;
49456;SDS011;35352;51.480;-0.862;2022-09-21T11:16:35;4;;;3;;
49456;SDS011;35352;51.480;-0.862;2022-09-21T11:19:09;4;;;4;;
49456;SDS011;35352;51.480;-0.862;2022-09-21T11:21:59;4;;;4;;
49456;SDS011;35352;51.480;-0.862;2022-09-21T11:24:35;4;;;4;;
49456;SDS011;35352;51.480;-0.862;2022-09-21T11:27:13;4;;;4;;
49456;SDS011;35352;51.480;-0.862;2022-09-21T11:29:47;5;;;5;;
49456;SDS011;35352;51.480;-0.862;2022-09-21T11:32:28;3;;;3;;
49456;SDS011;35352;51.480;-0.862;2022-09-21T11:35:14;4;;;4;;
49456;SDS011;35352;51.480;-0.862;2022-09-21T11:37:57;5;;;3;;
49456;SDS011;35352;51.480;-0.862;2022-09-21T11:41:17;1;;;1;;
49456;SDS011;35352;51.480;-0.862;2022-09-21T11:44:04;3;;;3;;
49456;SDS011;35352;51.480;-0.862;2022-09-21T11:46:48;5;;;5;;
49456;SDS011;35352;51.480;-0.862;2022-09-21T11:49:32;6;;;5;;
49456;SDS011;35352;51.480;-0.862;2022-09-21T11:52:28;5;;;3;;
49456;SDS011;35352;51.480;-0.862;2022-09-21T11:55:24;7;;;5;;
49456;SDS011;35352;51.480;-0.862;2022-09-21T11:58:08;9;;;9;;
49456;SDS011;35352;51.480;-0.862;2022-09-21T12:01:15;4;;;4;;
49456;SDS011;35352;51.480;-0.862;2022-09-21T12:04:00;4;;;4;;
49456;SDS011;35352;51.480;-0.862;2022-09-21T12:06:50;8;;;8;;
49456;SDS011;35352;51.480;-0.862;2022-09-21T12:09:40;9;;;5;;
49456;SDS011;35352;51.480;-0.862;2022-09-21T12:12:21;8;;;8;;
49456;SDS011;35352;51.480;-0.862;2022-09-21T12:14:57;4;;;4;;
49456;SDS011;35352;51.480;-0.862;2022-09-21T12:17:33;7;;;7;;
49456;SDS011;35352;51.480;-0.862;2022-09-21T12:21:14;3;;;3;;
49456;SDS011;35352;51.480;-0.862;2022-09-21T12:23:48;6;;;6;;
49456;SDS011;35352;51.480;-0.862;2022-09-21T12:26:22;5;;;5;;
49456;SDS011;35352;51.480;-0.862;2022-09-21T12:28:53;5;;;5;;
49456;SDS011;35352;51.480;-0.862;2022-09-21T12:31:28;4;;;4;;
49456;SDS011;35352;51.480;-0.862;2022-09-21T12:34:02;6;;;4;;
49456;SDS011;35352;51.480;-0.862;2022-09-21T12:36:41;7;;;6;;
49456;SDS011;35352;51.480;-0.862;2022-09-21T12:39:18;7;;;6;;
49456;SDS011;35352;51.480;-0.862;2022-09-21T12:41:52;6;;;5;;
49456;SDS011;35352;51.480;-0.862;2022-09-21T12:44:27;6;;;3;;
49456;SDS011;35352;51.480;-0.862;2022-09-21T12:47:01;5;;;5;;
49456;SDS011;35352;51.480;-0.862;2022-09-21T12:49:31;7;;;7;;
49456;SDS011;35352;51.480;-0.862;2022-09-21T12:52:01;5;;;5;;
49456;SDS011;35352;51.480;-0.862;2022-09-21T12:54:37;6;;;6;;
49456;SDS011;35352;51.480;-0.862;2022-09-21T12:57:15;5;;;2;;
49456;SDS011;35352;51.480;-0.862;2022-09-21T12:59:54;6;;;6;;
49456;SDS011;35352;51.480;-0.862;2022-09-21T13:02:39;6;;;4;;
49456;SDS011;35352;51.480;-0.862;2022-09-21T13:05:10;4;;;3;;
49456;SDS011;35352;51.480;-0.862;2022-09-21T13:07:54;5;;;5;;
49456;SDS011;35352;51.480;-0.862;2022-09-21T13:11:13;4;;;4;;
49456;SDS011;35352;51.480;-0.862;2022-09-21T13:13:43;5;;;5;;
49456;SDS011;35352;51.480;-0.862;2022-09-21T13:16:22;5;;;5;;
49456;SDS011;35352;51.480;-0.862;2022-09-21T13:18:54;7;;;6;;
49456;SDS011;35352;51.480;-0.862;2022-09-21T13:21:25;5;;;5;;
49456;SDS011;35352;51.480;-0.862;2022-09-21T13:23:55;6;;;6;;
49456;SDS011;35352;51.480;-0.862;2022-09-21T13:26:32;6;;;5;;
49456;SDS011;35352;51.480;-0.862;2022-09-21T13:29:04;5;;;5;;
49456;SDS011;35352;51.480;-0.862;2022-09-21T13:31:55;6;;;6;;
49456;SDS011;35352;51.480;-0.862;2022-09-21T13:34:28;6;;;5;;
49456;SDS011;35352;51.480;-0.862;2022-09-21T13:37:31;8;;;6;;
49456;SDS011;35352;51.480;-0.862;2022-09-21T13:40:32;5;;;4;;
49456;SDS011;35352;51.480;-0.862;2022-09-21T13:43:14;4;;;4;;
49456;SDS011;35352;51.480;-0.862;2022-09-21T13:45:49;4;;;4;;
49456;SDS011;35352;51.480;-0.862;2022-09-21T13:48:20;3;;;3;;
49456;SDS011;35352;51.480;-0.862;2022-09-21T13:51:12;3;;;3;;
49456;SDS011;35352;51.480;-0.862;2022-09-21T13:53:41;4;;;4;;
49456;SDS011;35352;51.480;-0.862;2022-09-21T13:56:18;5;;;5;;
49456;SDS011;35352;51.480;-0.862;2022-09-21T13:58:51;5;;;5;;
49456;SDS011;35352;51.480;-0.862;2022-09-21T14:01:22;4;;;4;;
49456;SDS011;35352;51.480;-0.862;2022-09-21T14:04:05;7;;;4;;
49456;SDS011;35352;51.480;-0.862;2022-09-21T14:06:50;2;;;2;;
49456;SDS011;35352;51.480;-0.862;2022-09-21T14:09:21;5;;;4;;
49456;SDS011;35352;51.480;-0.862;2022-09-21T14:11:53;5;;;5;;
49456;SDS011;35352;51.480;-0.862;2022-09-21T14:14:23;3;;;3;;
49456;SDS011;35352;51.480;-0.862;2022-09-21T14:16:58;4;;;4;;
49456;SDS011;35352;51.480;-0.862;2022-09-21T14:19:59;3;;;3;;
49456;SDS011;35352;51.480;-0.862;2022-09-21T14:22:36;4;;;3;;
49456;SDS011;35352;51.480;-0.862;2022-09-21T14:25:22;5;;;3;;
49456;SDS011;35352;51.480;-0.862;2022-09-21T14:27:52;5;;;3;;
49456;SDS011;35352;51.480;-0.862;2022-09-21T14:31:14;3;;;3;;
49456;SDS011;35352;51.480;-0.862;2022-09-21T14:33:49;4;;;4;;
49456;SDS011;35352;51.480;-0.862;2022-09-21T14:36:19;7;;;5;;
49456;SDS011;35352;51.480;-0.862;2022-09-21T14:38:52;7;;;6;;
49456;SDS011;35352;51.480;-0.862;2022-09-21T14:41:23;4;;;4;;
49456;SDS011;35352;51.480;-0.862;2022-09-21T14:43:56;5;;;5;;
49456;SDS011;35352;51.480;-0.862;2022-09-21T14:46:30;3;;;3;;
49456;SDS011;35352;51.480;-0.862;2022-09-21T14:49:21;6;;;6;;
49456;SDS011;35352;51.480;-0.862;2022-09-21T14:52:06;4;;;4;;
49456;SDS011;35352;51.480;-0.862;2022-09-21T14:54:50;5;;;5;;
49456;SDS011;35352;51.480;-0.862;2022-09-21T14:57:32;6;;;6;;
49456;SDS011;35352;51.480;-0.862;2022-09-21T15:01:53;3;;;3;;
49456;SDS011;35352;51.480;-0.862;2022-09-21T15:04:27;4;;;4;;
49456;SDS011;35352;51.480;-0.862;2022-09-21T15:07:03;7;;;6;;
49456;SDS011;35352;51.480;-0.862;2022-09-21T15:09:45;6;;;6;;
49456;SDS011;35352;51.480;-0.862;2022-09-21T15:12:50;4;;;4;;
49456;SDS011;35352;51.480;-0.862;2022-09-21T15:15:30;5;;;4;;
49456;SDS011;35352;51.480;-0.862;2022-09-21T15:18:13;5;;;5;;
49456;SDS011;35352;51.480;-0.862;2022-09-21T15:21:21;3;;;3;;
49456;SDS011;35352;51.480;-0.862;2022-09-21T15:23:51;5;;;5;;
49456;SDS011;35352;51.480;-0.862;2022-09-21T15:26:20;7;;;5;;
49456;SDS011;35352;51.480;-0.862;2022-09-21T15:28:52;7;;;5;;
49456;SDS011;35352;51.480;-0.862;2022-09-21T15:31:22;5;;;5;;
49456;SDS011;35352;51.480;-0.862;2022-09-21T15:33:51;5;;;5;;
49456;SDS011;35352;51.480;-0.862;2022-09-21T15:36:19;5;;;5;;
49456;SDS011;35352;51.480;-0.862;2022-09-21T15:38:49;5;;;5;;
49456;SDS011;35352;51.480;-0.862;2022-09-21T15:44:12;5;;;5;;
49456;SDS011;35352;51.480;-0.862;2022-09-21T15:46:42;5;;;4;;
49456;SDS011;35352;51.480;-0.862;2022-09-21T15:49:13;4;;;4;;
49456;SDS011;35352;51.480;-0.862;2022-09-21T15:51:42;4;;;4;;
49456;SDS011;35352;51.480;-0.862;2022-09-21T15:54:13;3;;;3;;
49456;SDS011;35352;51.480;-0.862;2022-09-21T15:56:54;4;;;4;;
49456;SDS011;35352;51.480;-0.862;2022-09-21T15:59:22;5;;;4;;
49456;SDS011;35352;51.480;-0.862;2022-09-21T16:01:51;5;;;5;;
49456;SDS011;35352;51.480;-0.862;2022-09-21T16:04:20;8;;;7;;
49456;SDS011;35352;51.480;-0.862;2022-09-21T16:06:57;7;;;5;;
49456;SDS011;35352;51.480;-0.862;2022-09-21T16:09:27;6;;;5;;
49456;SDS011;35352;51.480;-0.862;2022-09-21T16:12:38;4;;;4;;
49456;SDS011;35352;51.480;-0.862;2022-09-21T16:15:13;3;;;3;;
49456;SDS011;35352;51.480;-0.862;2022-09-21T16:17:52;4;;;3;;
49456;SDS011;35352;51.480;-0.862;2022-09-21T16:21:16;2;;;2;;
49456;SDS011;35352;51.480;-0.862;2022-09-21T16:23:50;5;;;5;;
49456;SDS011;35352;51.480;-0.862;2022-09-21T16:26:20;4;;;4;;
49456;SDS011;35352;51.480;-0.862;2022-09-21T16:28:55;4;;;4;;
49456;SDS011;35352;51.480;-0.862;2022-09-21T16:31:41;4;;;4;;
49456;SDS011;35352;51.480;-0.862;2022-09-21T16:34:19;7;;;5;;
49456;SDS011;35352;51.480;-0.862;2022-09-21T16:36:49;5;;;5;;
49456;SDS011;35352;51.480;-0.862;2022-09-21T16:39:18;5;;;5;;
49456;SDS011;35352;51.480;-0.862;2022-09-21T16:41:47;4;;;4;;
49456;SDS011;35352;51.480;-0.862;2022-09-21T16:44:17;4;;;4;;
49456;SDS011;35352;51.480;-0.862;2022-09-21T16:46:47;5;;;5;;
49456;SDS011;35352;51.480;-0.862;2022-09-21T16:49:20;4;;;4;;